Time;durP1;ratioP1;P1;durP2;ratioP2;P2;SDS_P1;SDS_P2;PMS_P1;PMS_P2;Temp;Humidity;BMP_temperature;BMP_pressure;BME280_temperature;BME280_humidity;BME280_pressure;Samples;Min_cycle;Max_cycle;Signal;HPM_P1;HPM_P2
2022/09/04 00:00:27;;;;;;;7.32;6.00;;;;;;;18.19;66.78;101293.69;5032085;28;20025;-71
2022/09/04 00:03:14;;;;;;;9.43;5.45;;;;;;;18.31;66.27;101301.56;5033421;28;20385;-72
2022/09/04 00:05:55;;;;;;;10.98;6.10;;;;;;;18.26;66.48;101297.78;5033675;28;20029;-72
2022/09/04 00:08:49;;;;;;;12.38;5.80;;;;;;;18.20;66.83;101308.34;5033289;28;20025;-72
2022/09/04 00:11:40;;;;;;;11.20;5.90;;;;;;;18.09;66.93;101306.50;5033281;28;20028;-72
2022/09/04 00:14:18;;;;;;;14.27;6.30;;;;;;;17.85;67.75;101298.59;5033184;28;20024;-72
2022/09/04 00:16:53;;;;;;;11.77;5.75;;;;;;;17.87;68.08;101306.25;5033691;28;20021;-71
2022/09/04 00:19:34;;;;;;;11.38;6.32;;;;;;;17.93;67.67;101294.88;5033131;28;20096;-71
2022/09/04 00:22:04;;;;;;;10.70;6.13;;;;;;;17.89;68.00;101307.59;5033011;28;20120;-71
2022/09/04 00:24:44;;;;;;;14.73;6.05;;;;;;;17.97;67.76;101316.94;5031821;28;20033;-71
2022/09/04 00:27:23;;;;;;;7.40;5.65;;;;;;;17.87;68.04;101314.88;5033760;28;20037;-71
2022/09/04 00:30:06;;;;;;;10.27;5.65;;;;;;;17.95;68.01;101314.56;5036027;28;20025;-72
2022/09/04 00:33:01;;;;;;;9.00;5.78;;;;;;;17.84;68.31;101315.31;5037097;28;20029;-72
2022/09/04 00:35:31;;;;;;;9.48;6.10;;;;;;;17.79;68.29;101315.19;5037181;28;20048;-71
2022/09/04 00:38:08;;;;;;;12.50;6.65;;;;;;;17.76;68.46;101319.00;5037364;28;20095;-71
2022/09/04 00:40:41;;;;;;;11.60;6.88;;;;;;;17.97;67.49;101317.72;5036983;28;20056;-73
2022/09/04 00:43:17;;;;;;;;;;;;;;;17.99;67.38;101320.13;5037445;28;20105;-71
2022/09/04 00:46:20;;;;;;;10.15;6.88;;;;;;;17.96;67.42;101317.97;5035683;28;20327;-72
2022/09/04 00:49:04;;;;;;;10.13;6.57;;;;;;;17.91;67.56;101323.84;5036977;28;20029;-71
2022/09/04 00:51:52;;;;;;;9.05;6.50;;;;;;;17.83;67.85;101332.00;5037031;28;20279;-71
2022/09/04 00:54:33;;;;;;;11.38;6.60;;;;;;;17.59;68.76;101328.47;5035367;28;20044;-72
2022/09/04 00:57:30;;;;;;;12.65;6.75;;;;;;;17.60;68.95;101330.84;5036875;28;20435;-72
2022/09/04 01:00:09;;;;;;;9.75;6.63;;;;;;;17.58;69.04;101327.69;5036663;28;20067;-72
2022/09/04 01:03:05;;;;;;;11.20;6.88;;;;;;;17.28;69.98;101334.66;5036658;28;20079;-72
2022/09/04 01:06:08;;;;;;;12.23;7.18;;;;;;;17.35;70.37;101340.63;5035387;28;20124;-72
2022/09/04 01:08:54;;;;;;;;;;;;;;;17.36;70.04;101344.81;5037072;28;20028;-72
2022/09/04 01:11:30;;;;;;;10.80;7.68;;;;;;;17.34;70.18;101341.63;5036520;28;20372;-72
2022/09/04 01:14:17;;;;;;;10.57;7.55;;;;;;;17.37;70.06;101330.72;5036420;28;20381;-72
2022/09/04 01:16:49;;;;;;;12.02;7.20;;;;;;;17.28;70.93;101343.28;5036443;28;20032;-71
2022/09/04 01:19:23;;;;;;;9.48;7.10;;;;;;;17.26;70.68;101347.13;5034985;28;20029;-71
2022/09/04 01:21:57;;;;;;;11.27;7.43;;;;;;;17.25;70.30;101351.56;5034942;28;20022;-71
2022/09/04 01:24:47;;;;;;;14.10;7.28;;;;;;;17.26;71.14;101353.16;5036323;28;20041;-71
2022/09/04 01:27:22;;;;;;;15.20;7.55;;;;;;;17.32;70.79;101348.84;5036088;28;20524;-71
2022/09/04 01:29:57;;;;;;;13.43;7.75;;;;;;;17.37;70.72;101356.84;5034909;28;20086;-71
2022/09/04 01:32:25;;;;;;;13.38;7.93;;;;;;;17.33;70.84;101360.91;5035948;28;20029;-72
2022/09/04 01:35:21;;;;;;;11.70;7.75;;;;;;;17.32;70.27;101357.53;5035940;28;20032;-72
2022/09/04 01:38:08;;;;;;;12.82;7.60;;;;;;;17.37;70.35;101349.81;5037492;28;20029;-72
2022/09/04 01:40:43;;;;;;;12.30;7.60;;;;;;;17.45;70.36;101353.16;5033348;28;20044;-73
2022/09/04 01:43:19;;;;;;;10.25;7.72;;;;;;;17.45;70.09;101356.56;5035843;28;20098;-73
2022/09/04 01:46:14;;;;;;;12.45;8.80;;;;;;;17.32;70.59;101354.91;5034680;28;20029;-71
2022/09/04 01:49:04;;;;;;;17.48;8.63;;;;;;;17.41;70.61;101358.03;5034408;28;20029;-72
2022/09/04 01:51:36;;;;;;;11.10;8.43;;;;;;;17.38;70.65;101358.47;5035641;28;20032;-72
2022/09/04 01:54:18;;;;;;;16.63;8.90;;;;;;;17.29;71.10;101370.19;5036213;28;20468;-74
2022/09/04 01:56:49;;;;;;;16.52;9.20;;;;;;;17.19;71.49;101368.09;5035692;28;20033;-72
2022/09/04 01:59:35;;;;;;;14.80;9.60;;;;;;;17.05;72.02;101364.00;5034227;28;20029;-72
2022/09/04 02:02:14;;;;;;;14.63;9.80;;;;;;;16.89;73.11;101365.38;5035014;28;20025;-72
2022/09/04 02:04:50;;;;;;;15.18;9.80;;;;;;;17.08;72.16;101372.22;5035453;28;20037;-72
2022/09/04 02:07:31;;;;;;;16.17;9.63;;;;;;;16.97;72.77;101372.91;5034140;28;20033;-71
2022/09/04 02:10:06;;;;;;;12.43;9.48;;;;;;;17.00;72.42;101382.91;5035391;28;20029;-71
2022/09/04 02:12:57;;;;;;;17.80;9.50;;;;;;;16.99;72.99;101380.53;5033998;28;20159;-71
2022/09/04 02:15:38;;;;;;;17.02;10.30;;;;;;;16.98;72.61;101381.56;5034047;28;20219;-71
2022/09/04 02:18:40;;;;;;;16.05;10.38;;;;;;;16.71;73.95;101386.94;5035259;28;20369;-71
2022/09/04 02:21:18;;;;;;;14.45;10.63;;;;;;;16.82;74.07;101385.50;5034249;28;20026;-71
2022/09/04 02:23:54;;;;;;;17.75;10.60;;;;;;;16.76;74.19;101381.09;5035004;28;20029;-70
2022/09/04 02:26:29;;;;;;;18.50;11.18;;;;;;;16.65;74.67;101382.59;5035094;28;20029;-71
2022/09/04 02:28:54;;;;;;;16.77;10.80;;;;;;;16.57;75.38;101380.22;5035076;28;20029;-71
2022/09/04 02:31:28;;;;;;;16.15;10.48;;;;;;;16.61;75.30;101384.81;5034998;28;20362;-71
2022/09/04 02:34:07;;;;;;;12.90;10.57;;;;;;;16.53;76.01;101385.09;5034917;28;20052;-71
2022/09/04 02:36:53;;;;;;;17.67;11.30;;;;;;;16.64;74.85;101405.28;5033623;28;20025;-71
2022/09/04 02:39:38;;;;;;;19.65;11.57;;;;;;;16.57;75.95;101399.31;5034884;28;20591;-71
2022/09/04 02:42:37;;;;;;;18.67;11.20;;;;;;;16.45;76.71;101386.13;5034884;28;20071;-71
2022/09/04 02:45:21;;;;;;;16.38;11.00;;;;;;;16.63;76.03;101397.66;5024212;28;20163;-71
2022/09/04 02:48:05;;;;;;;15.68;10.63;;;;;;;16.45;76.94;101401.78;5034889;28;20014;-71
2022/09/04 02:50:46;;;;;;;20.13;11.30;;;;;;;16.47;77.12;101394.53;5034686;28;20392;-71
2022/09/04 02:53:25;;;;;;;18.02;10.93;;;;;;;16.52;77.26;101386.09;5033383;28;20025;-72
2022/09/04 02:55:56;;;;;;;16.77;11.55;;;;;;;16.44;77.65;101399.41;5034458;28;20408;-71
2022/09/04 02:58:48;;;;;;;20.58;12.38;;;;;;;16.28;78.56;101398.06;5034685;28;20439;-71
2022/09/04 03:01:24;;;;;;;16.63;11.27;;;;;;;16.46;78.28;101392.97;5031620;28;20120;-71
2022/09/04 03:03:52;;;;;;;16.92;11.43;;;;;;;16.35;79.07;101404.06;5034827;28;20045;-71
2022/09/04 03:06:31;;;;;;;15.32;11.57;;;;;;;16.14;79.42;101412.19;5034643;28;20033;-72
2022/09/04 03:09:06;;;;;;;19.25;11.82;;;;;;;16.20;79.53;101414.78;5034381;28;20033;-74
2022/09/04 03:11:37;;;;;;;19.65;12.65;;;;;;;16.13;80.48;101414.00;5039224;28;20028;-77
2022/09/04 03:14:19;;;;;;;16.00;12.02;;;;;;;16.27;79.58;101417.34;5040181;28;20033;-77
2022/09/04 03:17:11;;;;;;;15.48;11.88;;;;;;;16.24;80.02;101422.97;5040615;28;20025;-76
2022/09/04 03:20:12;;;;;;;19.95;11.52;;;;;;;16.20;80.52;101412.16;5039116;28;20036;-75
2022/09/04 03:22:49;;;;;;;13.32;11.35;;;;;;;16.33;80.08;101421.72;5035761;28;20639;-74
2022/09/04 03:25:47;;;;;;;19.58;11.77;;;;;;;16.14;80.87;101420.00;5040738;28;20101;-77
2022/09/04 03:28:24;;;;;;;19.25;12.05;;;;;;;16.11;81.26;101418.66;5039222;28;20384;-72
2022/09/04 03:30:52;;;;;;;14.35;11.73;;;;;;;16.07;81.70;101424.47;5036007;28;20484;-72
2022/09/04 03:33:33;;;;;;;18.65;11.82;;;;;;;16.05;81.70;101423.88;5034152;28;20164;-73
2022/09/04 03:36:07;;;;;;;15.45;11.45;;;;;;;15.98;82.61;101422.09;5035268;28;20504;-74
2022/09/04 03:38:42;;;;;;;19.17;12.60;;;;;;;16.03;82.26;101418.88;5033867;28;20021;-72
2022/09/04 03:41:34;;;;;;;18.55;11.73;;;;;;;16.13;83.19;101419.22;5033370;28;20443;-72
2022/09/04 03:44:31;;;;;;;16.35;11.88;;;;;;;16.07;82.84;101417.44;5033437;28;20056;-73
2022/09/04 03:47:07;;;;;;;15.98;11.80;;;;;;;16.04;84.07;101430.09;5022606;28;20045;-73
2022/09/04 03:49:41;;;;;;;16.92;11.32;;;;;;;16.20;83.18;101427.81;5032866;28;20030;-72
2022/09/04 03:52:19;;;;;;;16.95;11.57;;;;;;;16.15;82.93;101435.47;5034024;28;20392;-72
2022/09/04 03:55:25;;;;;;;17.83;11.30;;;;;;;15.97;85.08;101440.56;5032356;28;20055;-73
2022/09/04 03:58:29;;;;;;;21.08;11.93;;;;;;;16.00;84.49;101433.13;5033739;28;20511;-72
2022/09/04 04:01:16;;;;;;;20.35;12.50;;;;;;;15.98;85.68;101442.94;5032140;28;20021;-71
2022/09/04 04:03:56;;;;;;;18.88;11.43;;;;;;;16.02;84.88;101440.72;5033109;28;20477;-71
2022/09/04 04:07:07;;;;;;;15.90;12.10;;;;;;;15.94;85.83;101456.59;5033490;28;20500;-72
2022/09/04 04:10:05;;;;;;;18.15;12.98;;;;;;;16.11;85.49;101455.16;5033341;28;20095;-71
2022/09/04 04:13:20;;;;;;;15.00;11.60;;;;;;;16.19;84.11;101454.88;5033501;28;20028;-71
2022/09/04 04:16:07;;;;;;;17.25;12.90;;;;;;;16.28;84.85;101452.03;5033448;28;20033;-71
2022/09/04 04:19:02;;;;;;;21.30;12.63;;;;;;;16.39;84.61;101452.19;5031975;28;20044;-70
2022/09/04 04:22:02;;;;;;;25.25;12.88;;;;;;;16.30;84.88;101463.06;5033158;28;20021;-71
2022/09/04 04:24:40;;;;;;;19.73;12.38;;;;;;;16.23;85.49;101463.13;5031892;28;20124;-71
2022/09/04 04:27:25;;;;;;;14.30;12.30;;;;;;;16.15;85.44;101464.13;5031843;28;20042;-71
2022/09/04 04:30:02;;;;;;;17.50;12.13;;;;;;;16.24;85.33;101470.72;5031917;28;20107;-72
2022/09/04 04:32:33;;;;;;;19.27;12.77;;;;;;;16.13;85.40;101466.16;5031832;28;20021;-72
2022/09/04 04:35:15;;;;;;;19.05;12.98;;;;;;;16.17;85.17;101479.56;5033211;28;20025;-72
2022/09/04 04:38:01;;;;;;;17.30;12.40;;;;;;;16.23;85.71;101474.34;5031877;28;20028;-72
2022/09/04 04:40:26;;;;;;;18.17;12.35;;;;;;;16.21;85.40;101478.94;5031677;28;20029;-72
2022/09/04 04:43:13;;;;;;;26.05;11.98;;;;;;;16.11;85.64;101483.00;5032896;28;20033;-71
2022/09/04 04:45:58;;;;;;;16.15;12.50;;;;;;;16.13;85.52;101487.00;5032982;28;20119;-71
2022/09/04 04:48:45;;;;;;;16.60;12.32;;;;;;;15.95;86.63;101489.47;5032979;28;20472;-71
2022/09/04 04:51:21;;;;;;;16.30;12.93;;;;;;;16.14;85.97;101495.63;5033001;28;20025;-71
2022/09/04 04:53:52;;;;;;;17.70;12.57;;;;;;;16.03;85.94;101497.09;5031618;28;20485;-71
2022/09/04 04:56:27;;;;;;;21.42;13.23;;;;;;;16.03;86.04;101491.88;5031551;28;20049;-71
2022/09/04 04:59:27;;;;;;;16.55;12.60;;;;;;;15.96;86.54;101496.28;5032816;28;20026;-71
2022/09/04 05:02:08;;;;;;;16.30;12.90;;;;;;;16.00;86.21;101500.09;5020787;28;20061;-71
2022/09/04 05:04:48;;;;;;;20.00;13.35;;;;;;;15.85;86.68;101507.34;5032878;28;20388;-71
2022/09/04 05:07:16;;;;;;;16.50;12.50;;;;;;;15.90;86.62;101510.13;5032785;28;20036;-72
2022/09/04 05:09:59;;;;;;;23.05;13.50;;;;;;;15.94;86.75;101504.31;5032754;28;20017;-71
2022/09/04 05:12:53;;;;;;;23.98;14.20;;;;;;;15.88;88.77;101514.75;5031550;28;20022;-71
2022/09/04 05:15:43;;;;;;;16.95;13.43;;;;;;;15.93;87.68;101515.75;5036571;28;20079;-71
2022/09/04 05:18:30;;;;;;;18.00;13.65;;;;;;;15.72;88.24;101522.00;5036439;28;20057;-71
2022/09/04 05:21:11;;;;;;;18.40;13.05;;;;;;;15.81;87.95;101530.41;5035016;28;20040;-71
2022/09/04 05:23:48;;;;;;;20.30;13.50;;;;;;;15.85;88.65;101528.97;5035252;28;20125;-72
2022/09/04 05:26:42;;;;;;;18.58;13.40;;;;;;;16.00;88.17;101534.00;5034961;28;20505;-71
2022/09/04 05:29:46;;;;;;;19.58;13.15;;;;;;;16.06;87.99;101527.16;5036137;28;20037;-71
2022/09/04 05:32:39;;;;;;;17.30;13.13;;;;;;;15.94;87.74;101540.81;5036024;28;20009;-71
2022/09/04 05:35:21;;;;;;;;;;;;;;;15.90;88.21;101554.44;5036506;28;20477;-71
2022/09/04 05:37:54;;;;;;;17.48;12.57;;;;;;;15.88;88.31;101540.81;5034772;28;19952;-72
2022/09/04 05:40:31;;;;;;;20.90;13.65;;;;;;;16.11;87.78;101554.22;5035942;28;20061;-71
2022/09/04 05:43:21;;;;;;;19.85;12.55;;;;;;;16.04;88.73;101556.03;5034671;28;20039;-71
2022/09/04 05:46:37;;;;;;;20.05;13.40;;;;;;;16.18;87.75;101547.16;5035999;28;20029;-71
2022/09/04 05:49:11;;;;;;;22.35;13.38;;;;;;;16.18;87.71;101551.59;5002589;28;20056;-72
2022/09/04 05:51:54;;;;;;;19.58;14.23;;;;;;;16.14;88.19;101558.19;5035866;28;20031;-71
2022/09/04 05:54:44;;;;;;;19.98;14.15;;;;;;;16.29;87.49;101557.97;5035638;28;20071;-72
2022/09/04 05:57:36;;;;;;;18.45;14.00;;;;;;;16.56;85.91;101561.28;5035729;28;20151;-72
2022/09/04 06:00:16;;;;;;;19.17;13.90;;;;;;;16.48;87.17;101562.31;5035747;28;20021;-72
2022/09/04 06:02:57;;;;;;;18.17;13.82;;;;;;;16.73;86.08;101557.19;5035537;28;20109;-72
2022/09/04 06:05:31;;;;;;;19.30;13.90;;;;;;;16.72;86.13;101557.41;5035630;28;20560;-72
2022/09/04 06:08:07;;;;;;;22.08;13.75;;;;;;;16.89;85.55;101566.38;5034221;28;20022;-73
2022/09/04 06:10:44;;;;;;;19.83;14.00;;;;;;;17.09;84.68;101572.28;5035540;28;20029;-72
2022/09/04 06:13:24;;;;;;;16.50;13.60;;;;;;;17.19;84.83;101571.00;5035393;28;20338;-72
2022/09/04 06:15:55;;;;;;;18.15;13.10;;;;;;;17.29;84.25;101566.94;5035388;28;20037;-72
2022/09/04 06:18:50;;;;;;;19.00;13.50;;;;;;;17.46;83.81;101566.38;5034022;28;20037;-72
2022/09/04 06:21:37;;;;;;;20.45;13.98;;;;;;;17.56;83.35;101561.47;5035049;28;20381;-72
2022/09/04 06:24:42;;;;;;;19.77;13.50;;;;;;;17.55;82.96;101576.38;5035186;28;20516;-72
2022/09/04 06:27:27;;;;;;;19.38;14.13;;;;;;;17.21;85.17;101572.41;5033621;28;20029;-72
2022/09/04 06:30:18;;;;;;;19.48;13.55;;;;;;;17.69;83.59;101574.41;5033808;28;20488;-73
2022/09/04 06:32:57;;;;;;;25.33;13.70;;;;;;;17.70;83.39;101585.69;5031145;28;20064;-72
2022/09/04 06:35:47;;;;;;;19.10;13.75;;;;;;;17.58;84.29;101589.00;5034933;28;20033;-72
2022/09/04 06:38:31;;;;;;;19.73;13.52;;;;;;;17.64;83.41;101595.19;5035149;28;20420;-72
2022/09/04 06:41:27;;;;;;;22.27;13.48;;;;;;;17.82;83.87;101589.22;5034842;28;20156;-72
2022/09/04 06:44:30;;;;;;;18.13;12.70;;;;;;;18.17;81.29;101591.31;5033684;28;20476;-72
2022/09/04 06:47:14;;;;;;;18.92;13.50;;;;;;;19.43;77.44;101592.28;5034837;28;20027;-72
2022/09/04 06:49:58;;;;;;;19.27;12.60;;;;;;;22.09;65.87;101599.84;5032599;28;20037;-72
2022/09/04 06:52:37;;;;;;;18.45;12.32;;;;;;;21.65;65.20;101601.63;5034670;28;20100;-72
2022/09/04 06:55:27;;;;;;;15.20;11.98;;;;;;;21.85;65.54;101591.38;5034471;28;20099;-72
2022/09/04 06:58:14;;;;;;;15.32;11.40;;;;;;;24.35;57.22;101605.97;5034501;28;20072;-73
2022/09/04 07:00:59;;;;;;;16.65;11.07;;;;;;;25.30;53.99;101596.91;5033153;28;20037;-73
2022/09/04 07:04:09;;;;;;;12.10;10.70;;;;;;;25.80;52.88;101600.50;5034401;28;20030;-73
2022/09/04 07:07:06;;;;;;;13.85;10.18;;;;;;;26.74;50.25;101598.00;5013894;28;20429;-72
2022/09/04 07:09:39;;;;;;;16.80;10.05;;;;;;;27.44;48.05;101603.78;5034285;28;20483;-72
2022/09/04 07:12:35;;;;;;;18.80;9.77;;;;;;;26.62;50.33;101610.81;5034346;28;20032;-72
2022/09/04 07:15:13;;;;;;;12.80;9.25;;;;;;;27.86;47.68;101612.94;5034256;28;20052;-72
2022/09/04 07:18:06;;;;;;;12.13;9.30;;;;;;;27.33;48.38;101610.25;5034267;28;20384;-72
2022/09/04 07:20:39;;;;;;;13.35;9.75;;;;;;;26.66;51.11;101609.19;5034122;28;20040;-71
2022/09/04 07:23:33;;;;;;;12.38;9.77;;;;;;;25.88;52.36;101602.63;5032839;28;20025;-71
2022/09/04 07:26:34;;;;;;;11.52;9.40;;;;;;;27.71;48.50;101607.78;5034014;28;20021;-72
2022/09/04 07:29:08;;;;;;;13.45;9.57;;;;;;;27.58;48.57;101606.56;5010908;28;20075;-73
2022/09/04 07:31:36;;;;;;;13.93;9.80;;;;;;;29.16;44.95;101610.91;5034138;28;20025;-73
2022/09/04 07:34:12;;;;;;;12.02;9.57;;;;;;;29.12;45.14;101613.38;5033884;28;20100;-72
2022/09/04 07:36:58;;;;;;;12.85;9.18;;;;;;;28.73;45.55;101611.03;5031965;28;20499;-72
2022/09/04 07:39:39;;;;;;;12.70;8.95;;;;;;;28.46;46.36;101609.03;5033726;28;20022;-73
2022/09/04 07:42:17;;;;;;;11.55;8.82;;;;;;;29.16;45.46;101611.69;5033672;28;20021;-72
2022/09/04 07:45:08;;;;;;;11.65;9.23;;;;;;;29.58;43.89;101612.56;5033731;28;20037;-72
2022/09/04 07:47:48;;;;;;;15.25;9.40;;;;;;;28.06;46.61;101606.59;5033719;28;20061;-72
2022/09/04 07:50:24;;;;;;;13.65;9.38;;;;;;;28.95;45.37;101613.09;5033566;28;20480;-72
2022/09/04 07:53:31;;;;;;;14.07;9.07;;;;;;;28.81;44.86;101626.34;5033731;28;20053;-72
2022/09/04 07:56:06;;;;;;;10.73;8.70;;;;;;;29.54;44.51;101634.72;5033364;28;20084;-72
2022/09/04 07:59:00;;;;;;;12.57;9.00;;;;;;;29.82;43.67;101635.56;5033494;28;20033;-72
2022/09/04 08:01:51;;;;;;;11.25;8.57;;;;;;;27.96;47.10;101637.81;5033338;28;20021;-71
2022/09/04 08:04:37;;;;;;;13.20;8.65;;;;;;;28.95;44.82;101637.03;5033329;28;20037;-74
2022/09/04 08:07:07;;;;;;;12.93;8.90;;;;;;;29.55;44.22;101636.28;5032245;28;20477;-72
2022/09/04 08:10:04;;;;;;;12.98;8.70;;;;;;;29.84;43.19;101634.19;5033380;28;20075;-72
2022/09/04 08:12:46;;;;;;;12.77;8.57;;;;;;;30.52;42.22;101635.16;5033313;28;20469;-72
2022/09/04 08:15:20;;;;;;;11.05;8.10;;;;;;;30.76;41.29;101640.22;5033329;28;20025;-72
2022/09/04 08:18:17;;;;;;;12.10;8.38;;;;;;;29.99;43.19;101641.06;5033199;28;20029;-72
2022/09/04 08:21:12;;;;;;;13.43;8.40;;;;;;;30.70;41.72;101645.97;5031887;28;20025;-73
2022/09/04 08:23:53;;;;;;;13.25;7.95;;;;;;;29.71;43.25;101648.28;5033199;28;20473;-71
2022/09/04 08:26:43;;;;;;;11.77;7.75;;;;;;;30.54;42.02;101646.31;5033248;28;20535;-73
2022/09/04 08:29:33;;;;;;;12.00;7.93;;;;;;;30.31;42.97;101650.84;5033213;28;20456;-72
2022/09/04 08:32:31;;;;;;;13.65;7.43;;;;;;;31.16;40.99;101652.91;5033049;28;20039;-72
2022/09/04 08:35:21;;;;;;;12.63;8.05;;;;;;;31.87;39.62;101653.72;5033160;28;20082;-72
2022/09/04 08:38:12;;;;;;;12.20;8.00;;;;;;;30.64;41.92;101653.31;5033300;28;20049;-72
2022/09/04 08:41:11;;;;;;;10.02;7.45;;;;;;;30.78;41.70;101653.25;5033023;28;20389;-72
2022/09/04 08:44:04;;;;;;;12.60;7.55;;;;;;;31.29;41.18;101662.72;5031616;28;20040;-72
2022/09/04 08:47:06;;;;;;;10.63;7.07;;;;;;;31.47;40.66;101660.94;5032920;28;20035;-71
2022/09/04 08:49:34;;;;;;;12.85;8.35;;;;;;;30.08;43.66;101659.81;5034456;28;20025;-72
2022/09/04 08:52:23;;;;;;;12.25;8.68;;;;;;;29.83;43.82;101655.78;5036933;28;20033;-72
2022/09/04 08:55:23;;;;;;;15.45;8.57;;;;;;;29.70;44.64;101662.69;5036900;28;20042;-71
2022/09/04 08:58:07;;;;;;;10.18;7.78;;;;;;;29.62;45.20;101664.16;5036859;28;20104;-72
2022/09/04 09:00:54;;;;;;;13.88;9.55;;;;;;;28.49;46.92;101666.94;5036719;28;20032;-70
2022/09/04 09:03:50;;;;;;;11.82;8.52;;;;;;;28.90;46.66;101661.06;5035415;28;20037;-71
2022/09/04 09:06:44;;;;;;;16.63;8.95;;;;;;;28.99;46.50;101667.28;5036740;28;20025;-72
2022/09/04 09:09:18;;;;;;;11.55;7.85;;;;;;;28.42;48.06;101655.88;5036680;28;20025;-71
2022/09/04 09:12:20;;;;;;;13.23;8.90;;;;;;;29.05;46.51;101674.13;5036596;28;20104;-71
2022/09/04 09:15:19;;;;;;;14.02;9.23;;;;;;;28.84;47.08;101670.97;5036865;28;20029;-71
2022/09/04 09:18:01;;;;;;;13.25;9.30;;;;;;;28.81;47.51;101673.44;5036410;28;20025;-71
2022/09/04 09:20:44;;;;;;;14.55;9.02;;;;;;;29.36;45.81;101669.09;5036408;28;20408;-73
2022/09/04 09:23:17;;;;;;;15.25;8.32;;;;;;;28.82;47.38;101665.13;5035063;28;20477;-72
2022/09/04 09:25:48;;;;;;;11.93;9.18;;;;;;;29.02;45.98;101664.03;5036183;28;20112;-72
2022/09/04 09:28:28;;;;;;;11.88;8.38;;;;;;;29.55;45.90;101663.72;5034901;28;20040;-72
2022/09/04 09:31:37;;;;;;;10.40;7.15;;;;;;;28.89;46.51;101670.91;5036077;28;20025;-72
2022/09/04 09:34:17;;;;;;;9.50;6.60;;;;;;;29.57;44.59;101669.53;5036080;28;20030;-72
2022/09/04 09:37:10;;;;;;;9.75;7.30;;;;;;;29.42;45.79;101667.16;5034860;28;20033;-71
2022/09/04 09:39:54;;;;;;;;;;;;;;;29.17;46.22;101666.47;5035056;28;20029;-71
2022/09/04 09:42:38;;;;;;;10.32;6.85;;;;;;;29.96;45.09;101657.66;5036015;28;19916;-72
2022/09/04 09:45:25;;;;;;;9.45;5.57;;;;;;;29.78;44.47;101664.66;5036003;28;20033;-72
2022/09/04 09:47:59;;;;;;;10.68;6.40;;;;;;;30.00;44.13;101663.19;5034631;28;20036;-72
2022/09/04 09:51:00;;;;;;;11.55;5.65;;;;;;;29.35;45.24;101664.09;5034607;28;20075;-71
2022/09/04 09:53:44;;;;;;;11.27;6.50;;;;;;;28.55;46.85;101663.16;5035613;28;20029;-72
2022/09/04 09:56:39;;;;;;;7.90;5.10;;;;;;;28.67;47.03;101668.03;5034220;28;20465;-71
2022/09/04 09:59:27;;;;;;;7.45;5.28;;;;;;;29.01;45.29;101665.13;5034372;28;20022;-71
2022/09/04 10:02:24;;;;;;;10.55;6.75;;;;;;;28.54;47.11;101665.03;5033587;28;20469;-71
2022/09/04 10:04:58;;;;;;;10.18;6.40;;;;;;;28.67;46.62;101668.81;5035517;28;20437;-72
2022/09/04 10:07:42;;;;;;;8.57;4.90;;;;;;;29.06;45.20;101672.25;5034543;28;20056;-71
2022/09/04 10:10:55;;;;;;;7.28;4.25;;;;;;;28.88;45.73;101661.31;5034211;28;20526;-70
2022/09/04 10:13:46;;;;;;;10.63;4.72;;;;;;;28.70;46.24;101670.91;5030279;28;20124;-72
2022/09/04 10:16:49;;;;;;;4.78;3.35;;;;;;;29.32;44.04;101660.13;5004100;28;20030;-72
2022/09/04 10:19:57;;;;;;;8.75;4.60;;;;;;;29.32;44.36;101665.47;5035366;28;20030;-72
2022/09/04 10:22:55;;;;;;;10.10;4.40;;;;;;;29.78;44.18;101670.00;5035117;28;20041;-72
2022/09/04 10:25:38;;;;;;;7.25;3.88;;;;;;;29.71;42.89;101668.81;5033856;28;20087;-72
2022/09/04 10:28:24;;;;;;;6.10;3.97;;;;;;;29.36;44.27;101673.66;5035211;28;20507;-73
2022/09/04 10:31:28;;;;;;;8.82;5.15;;;;;;;29.97;43.11;101677.09;5033834;28;20079;-72
2022/09/04 10:34:16;;;;;;;5.50;3.00;;;;;;;29.22;42.47;101684.25;5033759;28;20057;-72
2022/09/04 10:37:06;;;;;;;8.73;5.15;;;;;;;28.71;44.68;101683.09;5034981;28;20144;-73
2022/09/04 10:43:09;;;;;;;8.63;3.63;;;;;;;28.69;43.52;101674.66;5034909;28;20091;-71
2022/09/04 10:45:40;;;;;;;9.43;3.65;;;;;;;29.02;43.51;101680.81;5033449;28;20499;-71
2022/09/04 10:48:35;;;;;;;6.22;3.13;;;;;;;28.84;43.02;101686.94;5033501;28;20035;-71
2022/09/04 10:51:26;;;;;;;3.63;1.90;;;;;;;29.17;40.29;101684.31;5034705;28;20025;-71
2022/09/04 10:54:24;;;;;;;5.75;2.88;;;;;;;28.53;43.31;101679.38;5032270;28;20132;-72
2022/09/04 10:57:44;;;;;;;8.00;3.40;;;;;;;28.50;44.42;101679.16;5033316;28;20041;-72
2022/09/04 11:00:15;;;;;;;17.67;3.65;;;;;;;29.75;43.12;101675.91;4973641;28;20022;-72
2022/09/04 11:03:01;;;;;;;7.50;4.22;;;;;;;29.57;43.53;101682.06;5019436;28;20045;-72
2022/09/04 11:05:34;;;;;;;8.35;4.13;;;;;;;29.81;43.58;101682.72;5033183;28;20025;-72
2022/09/04 11:08:05;;;;;;;8.88;4.80;;;;;;;29.06;44.29;101678.41;5034333;28;20112;-72
2022/09/04 11:11:09;;;;;;;7.32;3.70;;;;;;;28.66;44.99;101685.06;5034326;28;20389;-72
2022/09/04 11:13:40;;;;;;;8.48;4.30;;;;;;;28.80;44.50;101680.63;4957113;28;20034;-71
2022/09/04 11:16:26;;;;;;;7.22;4.07;;;;;;;29.05;44.65;101694.63;4973188;28;20081;-71
2022/09/04 11:19:22;;;;;;;7.75;3.90;;;;;;;30.08;42.11;101679.25;5012264;28;20029;-71
2022/09/04 11:22:37;;;;;;;9.55;3.75;;;;;;;30.04;42.71;101685.50;5033945;28;20533;-72
2022/09/04 11:25:21;;;;;;;6.82;3.60;;;;;;;29.95;42.44;101682.72;5034375;28;20454;-74
2022/09/04 11:28:02;;;;;;;6.13;2.83;;;;;;;29.77;41.76;101687.03;5032847;28;20079;-72
2022/09/04 11:30:35;;;;;;;5.00;3.10;;;;;;;30.35;40.81;101683.81;5032635;28;20485;-71
2022/09/04 11:33:32;;;;;;;5.88;3.20;;;;;;;30.01;41.00;101670.88;5033505;28;20475;-72
2022/09/04 11:36:34;;;;;;;6.22;3.00;;;;;;;30.28;40.51;101682.63;5032503;28;20029;-73
2022/09/04 11:39:22;;;;;;;7.38;2.50;;;;;;;29.41;41.76;101677.00;5016435;28;20041;-72
2022/09/04 11:42:16;;;;;;;3.17;1.77;;;;;;;28.60;42.14;101684.34;5033578;28;20469;-72
2022/09/04 11:44:52;;;;;;;5.38;2.17;;;;;;;28.94;42.32;101683.31;5031070;28;20564;-72
2022/09/04 11:47:56;;;;;;;4.18;2.70;;;;;;;29.94;41.42;101678.47;5032639;28;20088;-72
2022/09/04 11:51:00;;;;;;;5.63;2.60;;;;;;;29.34;43.25;101676.59;4955829;28;20121;-72
2022/09/04 11:53:46;;;;;;;6.80;2.80;;;;;;;28.81;42.94;101681.41;5033532;28;20032;-71
2022/09/04 11:56:28;;;;;;;6.47;2.67;;;;;;;28.63;43.52;101677.66;5031992;28;20048;-71
2022/09/04 11:59:03;;;;;;;;;;;;;;;28.29;45.53;101678.59;5033781;28;20037;-71
2022/09/04 12:01:46;;;;;;;6.45;3.05;;;;;;;28.38;45.14;101679.53;5033474;28;19916;-71
2022/09/04 12:04:38;;;;;;;10.40;3.58;;;;;;;28.09;46.08;101676.97;5031894;28;20115;-71
2022/09/04 12:07:12;;;;;;;5.03;3.50;;;;;;;28.16;46.53;101669.44;5010247;28;20114;-71
2022/09/04 12:10:05;;;;;;;7.93;3.22;;;;;;;28.96;44.89;101679.28;5033284;28;20021;-72
2022/09/04 12:12:36;;;;;;;;;;;;;;;29.15;44.14;101681.97;5032292;28;20033;-71
2022/09/04 12:15:21;;;;;;;6.47;2.53;;;;;;;28.65;44.14;101681.59;5033571;28;20003;-73
2022/09/04 12:18:32;;;;;;;6.38;2.33;;;;;;;28.99;42.28;101686.69;5031705;28;20028;-72
2022/09/04 12:21:36;;;;;;;4.45;2.53;;;;;;;29.84;42.68;101686.69;5031675;28;20021;-72
2022/09/04 12:24:08;;;;;;;8.52;2.28;;;;;;;30.47;40.19;101682.50;5032586;28;20025;-72
2022/09/04 12:26:56;;;;;;;;;;;;;;;30.09;39.66;101675.50;5032082;28;20033;-70
2022/09/04 12:29:37;;;;;;;5.40;2.20;;;;;;;29.50;41.57;101687.00;5033209;28;19959;-71
2022/09/04 12:32:21;;;;;;;6.13;2.63;;;;;;;29.35;42.98;101696.81;5033134;28;20041;-71
2022/09/04 12:35:26;;;;;;;6.30;2.50;;;;;;;30.23;41.42;101685.41;5033030;28;20029;-72
2022/09/04 12:38:28;;;;;;;3.72;2.20;;;;;;;29.78;41.84;101678.00;5031780;28;20060;-72
2022/09/04 12:41:21;;;;;;;3.25;1.77;;;;;;;29.70;41.19;101677.88;5031502;28;20029;-71
2022/09/04 12:44:24;;;;;;;3.50;2.10;;;;;;;30.20;39.29;101684.09;5033110;28;20040;-71